createdAt,value
2022-08-04T00:02:17.737Z,20.40
2022-08-04T00:04:56.933Z,20.40
2022-08-04T00:07:48.304Z,20.30
2022-08-04T00:10:22.977Z,20.30
2022-08-04T00:12:59.403Z,20.30
2022-08-04T00:15:33.491Z,20.30
2022-08-04T00:18:08.692Z,20.30
2022-08-04T00:20:42.467Z,20.20
2022-08-04T00:23:16.673Z,20.20
2022-08-04T00:25:48.785Z,20.20
2022-08-04T00:28:21.871Z,20.20
2022-08-04T00:30:54.560Z,20.20
2022-08-04T00:33:26.973Z,20.10
2022-08-04T00:36:00.728Z,20.10
2022-08-04T00:38:34.303Z,20.00
2022-08-04T00:41:17.894Z,20.00
2022-08-04T00:44:04.962Z,19.90
2022-08-04T00:47:00.933Z,19.90
2022-08-04T00:49:51.206Z,19.80
2022-08-04T00:52:44.610Z,19.80
2022-08-04T00:55:36.908Z,19.80
2022-08-04T00:58:18.897Z,19.80
2022-08-04T01:01:01.342Z,19.80
2022-08-04T01:04:08.414Z,19.80
2022-08-04T01:07:16.905Z,19.80
2022-08-04T01:09:48.578Z,19.70
2022-08-04T01:12:37.265Z,19.70
2022-08-04T01:15:32.069Z,19.60
2022-08-04T01:18:50.105Z,19.60
2022-08-04T01:21:49.391Z,19.50
2022-08-04T01:24:30.556Z,19.50
2022-08-04T01:27:07.115Z,19.50
2022-08-04T01:29:47.279Z,19.50
2022-08-04T01:32:25.889Z,19.50
2022-08-04T01:35:47.757Z,19.50
2022-08-04T01:38:22.225Z,19.50
2022-08-04T01:41:02.538Z,19.40
2022-08-04T01:43:40.509Z,19.40
2022-08-04T01:46:14.622Z,19.30
2022-08-04T01:48:47.951Z,19.30
2022-08-04T01:51:22.495Z,19.30
2022-08-04T01:53:54.523Z,19.20
2022-08-04T01:56:29.247Z,19.20
2022-08-04T01:59:03.900Z,19.20
2022-08-04T02:01:38.722Z,19.20
2022-08-04T02:04:23.386Z,19.20
2022-08-04T02:07:07.455Z,19.20
2022-08-04T02:10:07.499Z,19.20
2022-08-04T02:12:57.794Z,19.20
2022-08-04T02:15:43.082Z,19.20
2022-08-04T02:18:50.753Z,19.20
2022-08-04T02:21:26.510Z,19.20
2022-08-04T02:24:06.938Z,19.10
2022-08-04T02:26:42.102Z,19.10
2022-08-04T02:29:21.415Z,19.10
2022-08-04T02:32:07.059Z,19.10
2022-08-04T02:35:02.003Z,19.10
2022-08-04T02:37:35.315Z,19.20
2022-08-04T02:40:08.659Z,19.10
2022-08-04T02:42:41.210Z,19.10
2022-08-04T02:45:13.069Z,19.10
2022-08-04T02:48:29.546Z,19.00
2022-08-04T02:50:39.181Z,19.00
2022-08-04T02:53:14.787Z,18.90
2022-08-04T02:55:50.857Z,18.90
2022-08-04T02:58:25.280Z,18.80
2022-08-04T03:00:57.133Z,18.80
2022-08-04T03:03:51.606Z,18.70
2022-08-04T03:06:54.646Z,18.70
2022-08-04T03:09:51.634Z,18.70
2022-08-04T03:12:29.454Z,18.70
2022-08-04T03:15:19.837Z,18.70
2022-08-04T03:18:01.541Z,18.70
2022-08-04T03:21:12.418Z,18.70
2022-08-04T03:24:19.724Z,18.70
2022-08-04T03:27:31.343Z,18.70
2022-08-04T03:30:14.185Z,18.70
2022-08-04T03:33:00.856Z,18.70
2022-08-04T03:35:52.162Z,18.60
2022-08-04T03:38:57.571Z,18.60
2022-08-04T03:42:08.278Z,18.60
2022-08-04T03:45:23.409Z,18.60
2022-08-04T03:48:17.649Z,18.60
2022-08-04T03:51:32.591Z,18.50
2022-08-04T03:54:29.678Z,18.50
2022-08-04T03:57:22.860Z,18.50
2022-08-04T04:00:09.167Z,18.50
2022-08-04T04:03:02.584Z,18.40
2022-08-04T04:06:20.761Z,18.40
2022-08-04T04:09:24.548Z,18.40
2022-08-04T04:12:04.860Z,18.40
2022-08-04T04:14:59.634Z,18.40
2022-08-04T04:17:49.471Z,18.40
2022-08-04T04:20:48.439Z,18.50
2022-08-04T04:23:22.994Z,18.40
2022-08-04T04:26:06.854Z,18.50
2022-08-04T04:29:13.764Z,18.50
2022-08-04T04:32:00.158Z,18.50
2022-08-04T04:34:40.733Z,18.50
2022-08-04T04:37:33.011Z,18.50
2022-08-04T04:40:25.907Z,18.50
2022-08-04T04:43:52.638Z,18.50
2022-08-04T04:46:32.069Z,18.50
2022-08-04T04:49:34.760Z,18.50
2022-08-04T04:52:26.324Z,18.60
2022-08-04T04:55:18.095Z,18.60
2022-08-04T04:57:56.647Z,18.70
2022-08-04T05:00:46.350Z,18.80
2022-08-04T05:03:20.915Z,18.80
2022-08-04T05:06:28.836Z,18.80
2022-08-04T05:09:39.454Z,18.90
2022-08-04T05:14:31.742Z,19.00
2022-08-04T05:15:25.165Z,19.00
2022-08-04T05:18:00.772Z,19.10
2022-08-04T05:20:43.865Z,19.10
2022-08-04T05:23:24.827Z,19.10
2022-08-04T05:26:01.114Z,19.20
2022-08-04T05:28:40.934Z,19.20
2022-08-04T05:31:17.303Z,19.30
2022-08-04T05:33:54.716Z,19.30
2022-08-04T05:36:47.963Z,19.40
2022-08-04T05:39:25.515Z,19.40
2022-08-04T05:42:04.569Z,19.50
2022-08-04T05:44:38.290Z,19.60
2022-08-04T05:47:12.892Z,19.60
2022-08-04T05:49:45.459Z,19.70
2022-08-04T05:52:28.333Z,19.70
2022-08-04T05:55:01.513Z,19.80
2022-08-04T05:57:33.993Z,19.90
2022-08-04T06:00:31.653Z,19.90
2022-08-04T06:03:00.605Z,20.00
2022-08-04T06:05:33.133Z,20.10
2022-08-04T06:08:13.660Z,20.10
2022-08-04T06:10:48.004Z,20.20
2022-08-04T06:13:48.822Z,20.30
2022-08-04T06:16:29.888Z,20.40
2022-08-04T06:20:00.846Z,20.50
2022-08-04T06:22:00.113Z,20.80
2022-08-04T06:24:33.008Z,21.10
2022-08-04T06:27:06.293Z,21.50
2022-08-04T06:29:50.860Z,21.80
2022-08-04T06:32:34.333Z,22.10
2022-08-04T06:35:09.319Z,22.30
2022-08-04T06:37:44.186Z,22.50
2022-08-04T06:40:31.481Z,22.70
2022-08-04T06:43:07.229Z,22.80
2022-08-04T06:45:41.277Z,23.00
2022-08-04T06:48:16.183Z,23.10
2022-08-04T06:51:26.533Z,23.20
2022-08-04T06:53:42.749Z,23.30
2022-08-04T06:56:17.303Z,23.50
2022-08-04T06:58:53.223Z,23.50
2022-08-04T07:01:26.739Z,23.50
2022-08-04T07:03:59.471Z,23.60
2022-08-04T07:06:32.479Z,23.70
2022-08-04T07:09:06.202Z,23.80
2022-08-04T07:11:39.736Z,23.90
2022-08-04T07:14:17.964Z,24.00
2022-08-04T07:16:50.408Z,24.20
2022-08-04T07:19:22.178Z,24.20
2022-08-04T07:22:18.118Z,24.40
2022-08-04T07:24:46.024Z,24.50
2022-08-04T07:27:18.303Z,24.60
2022-08-04T07:30:11.012Z,24.70
2022-08-04T07:32:43.814Z,24.70
2022-08-04T07:36:09.018Z,24.90
2022-08-04T07:38:11.814Z,25.00
2022-08-04T07:40:44.484Z,25.20
2022-08-04T07:43:17.389Z,25.20
2022-08-04T07:45:49.504Z,25.40
2022-08-04T07:48:23.187Z,25.50
2022-08-04T07:50:55.496Z,25.60
2022-08-04T07:53:54.741Z,25.60
2022-08-04T07:56:20.292Z,25.80
2022-08-04T07:58:52.073Z,25.90
2022-08-04T08:01:24.896Z,26.00
2022-08-04T08:03:58.099Z,26.00
2022-08-04T08:06:32.829Z,26.10
2022-08-04T08:09:17.035Z,26.20
2022-08-04T08:12:36.409Z,26.40
2022-08-04T08:14:45.470Z,26.60
2022-08-04T08:17:17.523Z,26.70
2022-08-04T08:19:49.300Z,26.80
2022-08-04T08:22:21.222Z,26.90
2022-08-04T08:24:53.277Z,27.00
2022-08-04T08:27:26.180Z,27.00
2022-08-04T08:29:58.318Z,27.20
2022-08-04T08:32:30.266Z,27.30
2022-08-04T08:35:02.293Z,27.40
2022-08-04T08:37:52.925Z,27.60
2022-08-04T08:40:40.892Z,27.80
2022-08-04T08:44:00.410Z,27.80
2022-08-04T08:46:38.767Z,28.00
2022-08-04T08:50:00.197Z,28.10
2022-08-04T08:53:02.058Z,28.30
2022-08-04T08:56:01.252Z,28.60
2022-08-04T08:58:35.771Z,28.80
2022-08-04T09:01:27.748Z,29.30
2022-08-04T09:04:32.010Z,30.20
2022-08-04T09:07:21.759Z,31.30
2022-08-04T09:10:20.308Z,32.70
2022-08-04T09:13:06.045Z,33.90
2022-08-04T09:16:02.485Z,35.10
2022-08-04T09:18:47.599Z,35.90
2022-08-04T09:21:37.190Z,36.90
2022-08-04T09:24:35.107Z,37.60
2022-08-04T09:27:35.896Z,37.90
2022-08-04T09:30:09.073Z,37.80
2022-08-04T09:32:43.739Z,38.40
2022-08-04T09:35:40.374Z,38.60
2022-08-04T09:38:23.398Z,38.90
2022-08-04T09:41:33.912Z,39.40
2022-08-04T09:44:51.017Z,39.60
2022-08-04T09:47:39.845Z,40.30
2022-08-04T09:50:50.023Z,40.50
2022-08-04T09:53:57.524Z,40.60
2022-08-04T09:56:57.246Z,40.80
2022-08-04T10:00:06.670Z,41.00
2022-08-04T10:02:42.684Z,41.40
2022-08-04T10:05:22.693Z,41.30
2022-08-04T10:08:32.176Z,41.70
2022-08-04T10:11:12.463Z,41.70
2022-08-04T10:14:05.886Z,41.20
2022-08-04T10:16:56.390Z,41.60
2022-08-04T10:19:33.070Z,42.00
2022-08-04T10:22:29.306Z,42.30
2022-08-04T10:26:03.033Z,42.30
2022-08-04T10:28:24.986Z,42.40
2022-08-04T10:31:03.287Z,42.40
2022-08-04T10:33:49.483Z,42.30
2022-08-04T10:36:26.450Z,42.60
2022-08-04T10:39:13.968Z,42.50
2022-08-04T10:42:16.678Z,42.10
2022-08-04T10:45:06.920Z,42.30
2022-08-04T10:48:07.613Z,42.60
2022-08-04T10:50:54.195Z,42.80
2022-08-04T10:53:30.911Z,42.40
2022-08-04T10:56:14.896Z,42.70
2022-08-04T10:58:52.918Z,42.90
2022-08-04T11:01:50.619Z,42.70
2022-08-04T11:04:42.187Z,42.30
2022-08-04T11:07:15.300Z,42.40
2022-08-04T11:09:47.851Z,42.70
2022-08-04T11:12:27.040Z,43.00
2022-08-04T11:15:06.615Z,42.80
2022-08-04T11:17:42.286Z,43.10
2022-08-04T11:20:36.541Z,43.30
2022-08-04T11:23:11.772Z,43.20
2022-08-04T11:26:09.560Z,43.20
2022-08-04T11:29:05.290Z,42.60
2022-08-04T11:31:42.013Z,41.80
2022-08-04T11:34:25.154Z,41.50
2022-08-04T11:37:02.459Z,40.50
2022-08-04T11:39:38.173Z,38.90
2022-08-04T11:42:19.748Z,38.30
2022-08-04T11:45:02.240Z,37.90
2022-08-04T11:47:50.331Z,37.40
2022-08-04T11:50:34.377Z,36.80
2022-08-04T11:53:07.583Z,36.40
2022-08-04T11:56:01.302Z,36.20
2022-08-04T11:58:32.436Z,36.10
2022-08-04T12:01:09.771Z,35.50
2022-08-04T12:04:26.835Z,35.10
2022-08-04T12:07:31.627Z,34.90
2022-08-04T12:10:15.343Z,34.70
2022-08-04T12:12:55.131Z,34.50
2022-08-04T12:15:31.015Z,34.50
2022-08-04T12:18:22.095Z,34.40
2022-08-04T12:21:00.047Z,34.40
2022-08-04T12:23:35.966Z,34.40
2022-08-04T12:26:28.766Z,34.20
2022-08-04T12:29:10.882Z,34.20
2022-08-04T12:31:50.995Z,34.30
2022-08-04T12:34:46.351Z,34.40
2022-08-04T12:37:42.079Z,34.50
2022-08-04T12:40:28.212Z,34.70
2022-08-04T12:43:17.568Z,34.60
2022-08-04T12:45:56.817Z,34.70
2022-08-04T12:48:29.147Z,34.80
2022-08-04T12:51:01.370Z,34.80
2022-08-04T12:53:51.047Z,34.80
2022-08-04T12:56:28.352Z,34.80
2022-08-04T12:59:06.866Z,34.90
2022-08-04T13:02:08.570Z,34.90
2022-08-04T13:04:50.424Z,34.80
2022-08-04T13:07:26.107Z,34.80
2022-08-04T13:10:01.044Z,34.80
2022-08-04T13:12:34.104Z,34.70
2022-08-04T13:15:18.480Z,34.80
2022-08-04T13:18:01.794Z,34.50
2022-08-04T13:20:36.080Z,34.50
2022-08-04T13:23:14.992Z,34.50
2022-08-04T13:26:44.207Z,34.50
2022-08-04T13:28:51.012Z,34.70
2022-08-04T13:31:26.581Z,34.90
2022-08-04T13:34:18.997Z,34.90
2022-08-04T13:36:56.130Z,34.90
2022-08-04T13:39:28.761Z,35.00
2022-08-04T13:42:05.056Z,35.00
2022-08-04T13:44:38.363Z,34.90
2022-08-04T13:47:16.680Z,34.80
2022-08-04T13:50:11.642Z,34.70
2022-08-04T13:52:45.218Z,34.50
2022-08-04T13:55:28.130Z,34.20
2022-08-04T13:58:05.739Z,34.10
2022-08-04T14:00:47.954Z,33.90
2022-08-04T14:03:29.351Z,33.80
2022-08-04T14:06:15.250Z,33.70
2022-08-04T14:09:16.067Z,33.60
2022-08-04T14:12:10.072Z,33.60
2022-08-04T14:14:52.846Z,33.60
2022-08-04T14:17:30.470Z,33.40
2022-08-04T14:20:04.307Z,33.30
2022-08-04T14:22:37.010Z,33.30
2022-08-04T14:25:15.495Z,33.20
2022-08-04T14:27:56.239Z,33.20
2022-08-04T14:30:29.807Z,33.30
2022-08-04T14:34:01.462Z,33.30
2022-08-04T14:36:04.413Z,33.10
2022-08-04T14:38:51.669Z,33.10
2022-08-04T14:41:32.532Z,33.10
2022-08-04T14:44:04.563Z,33.00
2022-08-04T14:46:55.986Z,33.00
2022-08-04T14:49:27.834Z,33.10
2022-08-04T14:52:03.014Z,33.00
2022-08-04T14:54:35.563Z,33.00
2022-08-04T14:57:08.704Z,33.00
2022-08-04T14:59:59.744Z,33.00
2022-08-04T15:02:35.939Z,33.00
2022-08-04T15:06:01.911Z,32.90
2022-08-04T15:08:00.270Z,32.70
2022-08-04T15:10:32.226Z,32.70
2022-08-04T15:13:04.051Z,32.70
2022-08-04T15:15:37.570Z,32.70
2022-08-04T15:18:13.185Z,32.70
2022-08-04T15:20:46.137Z,32.70
2022-08-04T15:23:17.911Z,32.80
2022-08-04T15:25:53.849Z,32.90
2022-08-04T15:28:28.979Z,32.90
2022-08-04T15:31:03.387Z,32.90
2022-08-04T15:33:39.482Z,33.00
2022-08-04T15:36:14.343Z,33.20
2022-08-04T15:39:00.966Z,33.10
2022-08-04T15:41:55.189Z,33.10
2022-08-04T15:44:55.387Z,33.00
2022-08-04T15:47:30.703Z,32.70
2022-08-04T15:50:07.247Z,32.60
2022-08-04T15:53:10.834Z,32.50
2022-08-04T15:55:45.127Z,32.40
2022-08-04T15:58:21.814Z,32.30
2022-08-04T16:00:56.603Z,32.40
2022-08-04T16:03:58.530Z,32.30
2022-08-04T16:06:29.246Z,32.20
2022-08-04T16:09:04.029Z,32.00
2022-08-04T16:11:40.331Z,32.00
2022-08-04T16:14:12.106Z,31.90
2022-08-04T16:16:45.339Z,31.80
2022-08-04T16:19:22.860Z,31.60
2022-08-04T16:22:00.280Z,31.60
2022-08-04T16:24:39.291Z,31.70
2022-08-04T16:27:12.950Z,31.60
2022-08-04T16:29:47.158Z,31.40
2022-08-04T16:32:22.136Z,31.20
2022-08-04T16:35:04.207Z,31.20
2022-08-04T16:37:38.395Z,31.20
2022-08-04T16:40:38.535Z,31.30
2022-08-04T16:43:16.648Z,31.40
2022-08-04T16:45:50.016Z,31.50
2022-08-04T16:48:27.165Z,31.50
2022-08-04T16:51:09.539Z,31.60
2022-08-04T16:53:52.191Z,31.80
2022-08-04T16:56:33.647Z,31.90
2022-08-04T16:59:10.139Z,31.90
2022-08-04T17:01:47.703Z,31.90
2022-08-04T17:04:29.062Z,31.70
2022-08-04T17:07:05.899Z,31.60
2022-08-04T17:09:37.754Z,31.50
2022-08-04T17:12:10.456Z,31.40
2022-08-04T17:14:42.175Z,31.20
2022-08-04T17:17:23.323Z,31.00
2022-08-04T17:19:55.051Z,30.80
2022-08-04T17:22:26.783Z,30.70
2022-08-04T17:24:59.999Z,30.40
2022-08-04T17:30:27.779Z,30.00
2022-08-04T17:32:59.548Z,29.80
2022-08-04T17:35:34.533Z,29.60
2022-08-04T17:38:10.806Z,29.40
2022-08-04T17:40:57.271Z,29.30
2022-08-04T17:44:03.622Z,29.10
2022-08-04T17:46:43.198Z,28.90
2022-08-04T17:49:18.024Z,28.70
2022-08-04T17:52:06.672Z,28.60
2022-08-04T17:54:43.299Z,28.50
2022-08-04T17:57:20.940Z,28.40
2022-08-04T17:59:57.868Z,28.40
2022-08-04T18:02:34.977Z,28.20
2022-08-04T18:05:12.284Z,28.10
2022-08-04T18:08:37.682Z,28.00
2022-08-04T18:10:52.575Z,27.90
2022-08-04T18:13:42.863Z,27.80
2022-08-04T18:16:22.071Z,27.70
2022-08-04T18:19:18.870Z,27.50
2022-08-04T18:21:59.304Z,27.30
2022-08-04T18:24:56.749Z,27.20
2022-08-04T18:27:30.528Z,27.00
2022-08-04T18:30:34.288Z,26.90
2022-08-04T18:33:24.329Z,26.80
2022-08-04T18:36:34.923Z,26.80
2022-08-04T18:38:38.845Z,26.60
2022-08-04T18:41:28.803Z,26.50
2022-08-04T18:44:28.138Z,26.40
2022-08-04T18:47:22.542Z,26.30
2022-08-04T18:50:59.221Z,26.20
2022-08-04T18:52:48.355Z,26.10
2022-08-04T18:55:34.006Z,26.00
2022-08-04T18:58:27.233Z,25.90
2022-08-04T19:01:00.455Z,25.90
2022-08-04T19:03:33.394Z,25.80
2022-08-04T19:06:07.486Z,25.70
2022-08-04T19:08:42.351Z,25.60
2022-08-04T19:11:54.441Z,25.60
2022-08-04T19:14:13.708Z,25.50
2022-08-04T19:16:47.158Z,25.50
2022-08-04T19:19:20.031Z,25.40
2022-08-04T19:22:00.283Z,25.30
2022-08-04T19:24:35.199Z,25.20
2022-08-04T19:27:08.242Z,25.20
2022-08-04T19:29:43.127Z,25.10
2022-08-04T19:32:16.304Z,25.10
2022-08-04T19:34:48.748Z,25.00
2022-08-04T19:37:58.502Z,25.00
2022-08-04T19:40:13.050Z,25.00
2022-08-04T19:42:46.810Z,24.90
2022-08-04T19:45:41.623Z,24.90
2022-08-04T19:48:18.979Z,24.90
2022-08-04T19:50:51.632Z,24.90
2022-08-04T19:53:37.505Z,24.80
2022-08-04T19:56:09.708Z,24.80
2022-08-04T19:58:41.974Z,24.70
2022-08-04T20:01:33.498Z,24.70
2022-08-04T20:04:11.225Z,24.70
2022-08-04T20:06:43.534Z,24.60
2022-08-04T20:09:26.250Z,24.60
2022-08-04T20:11:58.626Z,24.50
2022-08-04T20:14:31.307Z,24.40
2022-08-04T20:17:09.900Z,24.30
2022-08-04T20:19:42.274Z,24.30
2022-08-04T20:22:52.438Z,24.30
2022-08-04T20:25:35.641Z,24.20
2022-08-04T20:28:06.887Z,24.20
2022-08-04T20:30:38.691Z,24.10
2022-08-04T20:33:13.920Z,24.00
2022-08-04T20:36:00.622Z,24.00
2022-08-04T20:38:37.032Z,24.00
2022-08-04T20:41:08.774Z,24.00
2022-08-04T20:43:41.148Z,23.90
2022-08-04T20:46:17.758Z,23.80
2022-08-04T20:48:50.771Z,23.80
2022-08-04T20:51:25.915Z,23.80
2022-08-04T20:54:16.752Z,23.80
2022-08-04T20:56:55.391Z,23.80
2022-08-04T20:59:28.196Z,23.90
2022-08-04T21:02:00.349Z,23.80
2022-08-04T21:04:35.506Z,23.80
2022-08-04T21:07:09.319Z,23.70
2022-08-04T21:12:35.467Z,23.50
2022-08-04T21:15:14.143Z,23.50
2022-08-04T21:17:59.104Z,23.50
2022-08-04T21:20:39.532Z,23.50
2022-08-04T21:23:14.586Z,23.50
2022-08-04T21:25:50.843Z,23.40
2022-08-04T21:28:22.749Z,23.40
2022-08-04T21:30:59.530Z,23.40
2022-08-04T21:33:50.044Z,23.40
2022-08-04T21:36:27.378Z,23.40
2022-08-04T21:38:59.544Z,23.40
2022-08-04T21:41:32.407Z,23.30
2022-08-04T21:44:04.651Z,23.30
2022-08-04T21:46:44.564Z,23.30
2022-08-04T21:49:16.562Z,23.40
2022-08-04T21:51:58.373Z,23.30
2022-08-04T21:54:32.643Z,23.30
2022-08-04T21:57:04.667Z,23.40
2022-08-04T21:59:43.017Z,23.30
2022-08-04T22:02:17.886Z,23.30
2022-08-04T22:04:51.221Z,23.20
2022-08-04T22:07:23.701Z,23.10
2022-08-04T22:10:02.320Z,23.10
2022-08-04T22:12:35.393Z,23.00
2022-08-04T22:16:02.751Z,23.00
2022-08-04T22:18:05.442Z,22.80
2022-08-04T22:20:37.279Z,22.80
2022-08-04T22:23:16.746Z,22.70
2022-08-04T22:25:53.748Z,22.70
2022-08-04T22:28:28.512Z,22.70
2022-08-04T22:31:00.607Z,22.60
2022-08-04T22:33:55.258Z,22.60
2022-08-04T22:36:27.639Z,22.60
2022-08-04T22:39:06.853Z,22.70
2022-08-04T22:42:03.324Z,22.70
2022-08-04T22:44:33.144Z,22.70
2022-08-04T22:47:05.494Z,22.70
2022-08-04T22:49:37.869Z,22.70
2022-08-04T22:52:17.001Z,22.70
2022-08-04T22:54:59.666Z,22.70
2022-08-04T22:57:43.569Z,22.70
2022-08-04T23:00:28.595Z,22.80
2022-08-04T23:03:00.974Z,22.90
2022-08-04T23:05:35.870Z,23.00
2022-08-04T23:08:07.974Z,23.00
2022-08-04T23:10:43.881Z,23.00
2022-08-04T23:13:16.568Z,23.00
2022-08-04T23:15:48.987Z,22.90
2022-08-04T23:18:26.809Z,22.90
2022-08-04T23:20:59.303Z,22.90
2022-08-04T23:23:32.055Z,22.80
2022-08-04T23:26:11.511Z,22.70
2022-08-04T23:28:45.970Z,22.60
2022-08-04T23:31:19.023Z,22.50
2022-08-04T23:33:52.119Z,22.50
2022-08-04T23:36:29.850Z,22.40
2022-08-04T23:39:05.837Z,22.40
2022-08-04T23:41:53.865Z,22.40
2022-08-04T23:44:28.194Z,22.30
2022-08-04T23:47:04.667Z,22.20
2022-08-04T23:49:43.628Z,22.10
2022-08-04T23:52:28.222Z,22.10
2022-08-04T23:55:02.072Z,22.10
2022-08-04T23:58:06.468Z,22.10
